Time;durP1;ratioP1;P1;durP2;ratioP2;P2;SDS_P1;SDS_P2;PMS_P1;PMS_P2;Temp;Humidity;BMP_temperature;BMP_pressure;BME280_temperature;BME280_humidity;BME280_pressure;Samples;Min_cycle;Max_cycle;Signal;HPM_P1;HPM_P2
2021/01/12 00:05:50;;;;;;;394.33;138.93;;;;;;;-7.70;78.20;99065.34;4244768;81;21598;-82
2021/01/12 00:11:53;;;;;;;382.43;137.97;;;;;;;-7.68;77.77;99061.88;4273773;81;21319;-83
2021/01/12 00:17:55;;;;;;;348.80;122.77;;;;;;;-7.76;77.53;99055.19;4272712;83;21295;-82
2021/01/12 00:23:56;;;;;;;339.53;124.43;;;;;;;-8.10;77.16;99057.85;4239215;81;21185;-82
2021/01/12 00:29:59;;;;;;;319.03;114.80;;;;;;;-8.20;77.45;99057.23;4308271;81;21611;-83
2021/01/12 00:36:08;;;;;;;333.30;122.23;;;;;;;-8.39;78.11;99048.06;4358340;81;21168;-83
2021/01/12 00:42:10;;;;;;;329.13;122.53;;;;;;;-8.46;78.05;99053.30;4318668;81;21171;-82
2021/01/12 00:48:12;;;;;;;318.37;114.90;;;;;;;-8.18;78.84;99059.64;4310826;81;21303;-84
2021/01/12 00:54:20;;;;;;;315.30;117.83;;;;;;;-8.12;77.96;99057.30;4318055;81;21121;-82
2021/01/12 01:00:22;;;;;;;302.43;111.10;;;;;;;-8.15;77.99;99062.59;4280420;81;21164;-82
2021/01/12 01:06:24;;;;;;;302.87;114.60;;;;;;;-8.20;77.42;99049.27;4301628;81;21345;-82
2021/01/12 01:12:26;;;;;;;289.20;105.27;;;;;;;-8.23;77.74;99037.86;4283835;81;21618;-83
2021/01/12 01:18:27;;;;;;;293.97;110.27;;;;;;;-8.34;77.32;99036.68;4286730;83;21582;-82
2021/01/12 01:24:28;;;;;;;312.13;111.93;;;;;;;-8.59;77.85;99036.44;4267630;83;21661;-82
2021/01/12 01:30:30;;;;;;;303.30;107.97;;;;;;;-8.57;77.57;99015.77;4285192;83;21626;-82
2021/01/12 01:36:31;;;;;;;294.73;108.10;;;;;;;-8.63;77.64;99009.59;4300786;81;21591;-82
2021/01/12 01:42:37;;;;;;;301.03;103.67;;;;;;;-8.56;78.37;99002.76;4284605;81;21180;-83
2021/01/12 01:48:40;;;;;;;285.60;104.60;;;;;;;-8.46;77.97;98995.71;4285355;81;21173;-82
2021/01/12 01:54:43;;;;;;;319.00;112.93;;;;;;;-8.70;77.07;98998.91;4319666;81;21160;-82
2021/01/12 02:00:46;;;;;;;300.27;109.10;;;;;;;-8.78;78.40;98984.77;4298128;81;21176;-82
2021/01/12 02:06:50;;;;;;;309.20;108.00;;;;;;;-8.69;78.24;98977.44;4309895;81;21163;-83
2021/01/12 02:12:59;;;;;;;305.07;106.63;;;;;;;-8.85;77.74;98978.88;4238230;83;21203;-83
2021/01/12 02:19:03;;;;;;;320.63;113.27;;;;;;;-8.77;78.80;98963.83;4259055;82;21150;-83
2021/01/12 02:25:08;;;;;;;299.53;106.33;;;;;;;-8.60;78.42;98952.06;4276458;82;21153;-82
2021/01/12 02:31:10;;;;;;;292.20;106.37;;;;;;;-8.74;77.71;98957.48;4300092;82;21197;-82
2021/01/12 02:37:20;;;;;;;282.60;103.17;;;;;;;-9.03;77.70;98944.20;4209475;82;21158;-82
2021/01/12 02:43:21;;;;;;;314.47;105.03;;;;;;;-9.05;78.16;98935.69;4224467;82;21619;-82
2021/01/12 02:49:23;;;;;;;287.37;105.00;;;;;;;-8.91;78.35;98917.00;4272039;82;21630;-82
2021/01/12 02:55:24;;;;;;;290.93;105.77;;;;;;;-9.05;78.21;98907.06;4224007;82;21623;-82
2021/01/12 03:01:26;;;;;;;279.03;100.80;;;;;;;-9.10;78.11;98889.26;4244417;84;21161;-82
2021/01/12 03:07:27;;;;;;;296.27;104.50;;;;;;;-9.06;78.36;98883.72;4264678;82;21918;-82
2021/01/12 03:13:29;;;;;;;289.77;106.07;;;;;;;-9.19;77.90;98878.81;4256832;82;21133;-82
2021/01/12 03:19:30;;;;;;;274.43;99.50;;;;;;;-9.14;78.03;98862.95;4269579;82;21201;-82
2021/01/12 03:25:32;;;;;;;286.13;103.30;;;;;;;-9.27;77.59;98849.31;4285123;82;21429;-83
2021/01/12 03:31:35;;;;;;;294.67;101.33;;;;;;;-9.35;78.31;98840.48;4276434;82;21140;-83
2021/01/12 03:37:37;;;;;;;293.43;103.30;;;;;;;-9.32;78.07;98831.52;4231743;83;21136;-82
2021/01/12 03:43:39;;;;;;;285.20;96.40;;;;;;;-9.19;78.17;98815.72;4219156;82;21189;-82
2021/01/12 03:49:41;;;;;;;302.07;105.33;;;;;;;-9.34;77.74;98812.91;4218331;84;21164;-82
2021/01/12 03:55:43;;;;;;;285.83;99.83;;;;;;;-9.37;77.90;98799.66;4183769;84;21173;-82
2021/01/12 04:01:44;;;;;;;295.17;102.60;;;;;;;-9.37;78.17;98794.87;4196328;85;21161;-82
2021/01/12 04:07:46;;;;;;;286.67;97.33;;;;;;;-9.22;78.90;98795.02;4165325;85;21658;-82
2021/01/12 04:13:48;;;;;;;275.60;97.13;;;;;;;-9.15;78.59;98787.13;4188187;84;21200;-83
2021/01/12 04:19:50;;;;;;;274.97;94.00;;;;;;;-9.22;77.81;98779.89;4163500;84;21630;-83
2021/01/12 04:25:52;;;;;;;257.47;88.53;;;;;;;-9.42;77.63;98769.64;4197885;84;21375;-82
2021/01/12 04:31:54;;;;;;;221.57;77.27;;;;;;;-9.36;78.18;98759.37;4203405;84;21156;-82
2021/01/12 04:37:56;;;;;;;221.93;75.40;;;;;;;-9.58;77.59;98744.86;4144886;84;21646;-82
2021/01/12 04:43:57;;;;;;;201.03;71.03;;;;;;;-9.64;78.21;98744.54;4173531;84;21225;-82
2021/01/12 04:50:05;;;;;;;201.90;70.53;;;;;;;-9.33;78.75;98732.36;4144499;84;21145;-82
2021/01/12 04:56:07;;;;;;;171.27;63.77;;;;;;;-9.28;78.11;98730.54;4159523;84;21162;-82
2021/01/12 05:02:15;;;;;;;178.07;61.03;;;;;;;-9.46;78.08;98700.98;4190217;84;21180;-82
2021/01/12 05:08:18;;;;;;;166.77;56.43;;;;;;;-9.54;78.20;98691.65;4172939;84;21149;-82
2021/01/12 05:14:23;;;;;;;180.20;58.60;;;;;;;-9.63;77.68;98706.42;4204333;84;21172;-83
2021/01/12 05:20:26;;;;;;;194.53;64.67;;;;;;;-9.54;78.76;98703.57;4248715;83;21693;-82
2021/01/12 05:26:36;;;;;;;191.63;63.37;;;;;;;-9.54;78.77;98694.30;4265470;82;21185;-83
2021/01/12 05:32:41;;;;;;;179.77;63.33;;;;;;;-9.38;78.77;98687.26;4239059;83;22004;-83
2021/01/12 05:38:45;;;;;;;;;;;;;;;-9.46;78.33;98688.53;4287160;82;21306;-82
2021/01/12 05:44:47;;;;;;;195.63;60.30;;;;;;;-9.48;78.40;98680.55;4307746;82;20192;-82
2021/01/12 05:50:52;;;;;;;201.47;61.93;;;;;;;-9.52;78.55;98675.49;4278710;82;21193;-82
2021/01/12 05:57:00;;;;;;;197.68;63.48;;;;;;;-9.49;78.40;98663.06;4279241;82;21192;-84
2021/01/12 06:03:04;;;;;;;212.17;70.30;;;;;;;-9.56;78.45;98646.56;4243478;82;21145;-83
2021/01/12 06:09:07;;;;;;;166.77;58.17;;;;;;;-9.54;78.96;98640.50;4251136;82;21165;-83
2021/01/12 06:15:13;;;;;;;195.93;61.13;;;;;;;-9.55;78.65;98626.98;4273298;81;21630;-84
2021/01/12 06:21:17;;;;;;;205.97;68.53;;;;;;;-9.45;79.19;98623.06;4292059;81;21196;-83
2021/01/12 06:27:29;;;;;;;198.53;69.97;;;;;;;-9.27;79.04;98610.19;4311712;81;21152;-82
2021/01/12 06:33:32;;;;;;;235.13;75.77;;;;;;;-9.28;79.00;98599.84;4316709;81;21180;-82
2021/01/12 06:40:10;;;;;;;220.13;75.13;;;;;;;-9.31;78.96;98605.66;4300494;81;21730;-83
2021/01/12 06:46:12;;;;;;;238.30;82.10;;;;;;;-9.14;79.58;98603.10;4292090;81;21456;-83
2021/01/12 06:52:15;;;;;;;229.33;82.43;;;;;;;-8.99;78.94;98601.06;4297487;81;21625;-83
2021/01/12 06:58:17;;;;;;;223.90;81.87;;;;;;;-9.12;78.96;98601.00;4314076;81;21172;-83
2021/01/12 07:04:21;;;;;;;253.70;88.77;;;;;;;-9.15;78.97;98597.55;4306363;81;21558;-83
2021/01/12 07:10:24;;;;;;;255.97;89.03;;;;;;;-9.09;79.10;98587.23;4288874;81;21212;-83
2021/01/12 07:16:25;;;;;;;226.60;86.17;;;;;;;-8.96;79.46;98578.00;4255577;81;21181;-82
2021/01/12 07:22:31;;;;;;;265.63;94.37;;;;;;;-8.95;79.13;98579.06;4185540;83;21140;-83
2021/01/12 07:28:35;;;;;;;328.43;115.20;;;;;;;-8.84;79.53;98562.13;4186509;83;21656;-83
2021/01/12 07:34:38;;;;;;;343.23;115.57;;;;;;;-8.64;79.97;98563.50;4182061;83;21661;-82
2021/01/12 07:40:39;;;;;;;315.90;113.37;;;;;;;-8.35;80.26;98552.70;4183864;83;21188;-83
2021/01/12 07:46:41;;;;;;;320.67;115.27;;;;;;;-8.04;80.51;98540.70;4187550;85;21160;-83
2021/01/12 07:52:43;;;;;;;332.20;118.77;;;;;;;-7.60;80.49;98523.92;4192871;83;21193;-83
2021/01/12 07:58:44;;;;;;;274.97;92.40;;;;;;;-7.19;80.99;98525.41;4185892;83;21195;-83
2021/01/12 08:04:47;;;;;;;205.90;86.30;;;;;;;-6.45;81.24;98512.51;4184708;83;21161;-83
2021/01/12 08:10:49;;;;;;;198.13;81.40;;;;;;;-6.03;81.18;98503.39;4196689;83;21153;-82
2021/01/12 08:16:53;;;;;;;192.53;78.37;;;;;;;-5.46;81.35;98495.33;4216335;82;21161;-83
2021/01/12 08:22:56;;;;;;;197.40;79.97;;;;;;;-4.98;81.60;98486.23;4262430;82;21181;-83
2021/01/12 08:28:58;;;;;;;184.73;78.83;;;;;;;-4.58;81.23;98476.86;4274551;81;21771;-83
2021/01/12 08:35:08;;;;;;;186.83;78.93;;;;;;;-4.17;81.36;98471.16;4292662;82;21161;-83
2021/01/12 08:41:11;;;;;;;198.20;80.63;;;;;;;-3.54;81.38;98454.80;4276056;82;21205;-83
2021/01/12 08:47:13;;;;;;;197.87;83.87;;;;;;;-2.92;81.59;98450.59;4282084;82;21138;-84
2021/01/12 08:59:23;;;;;;;200.93;90.97;;;;;;;-1.32;81.60;98438.58;4462324;78;22276;-84
2021/01/12 09:05:26;;;;;;;201.13;90.50;;;;;;;-0.56;81.80;98433.89;4388273;79;21161;-84
2021/01/12 09:11:27;;;;;;;189.87;84.47;;;;;;;0.17;79.80;98415.94;4353038;79;21176;-85
2021/01/12 09:17:29;;;;;;;184.70;81.92;;;;;;;1.04;80.38;98415.47;4373183;79;21165;-84
2021/01/12 09:23:31;;;;;;;185.95;80.28;;;;;;;1.69;79.35;98409.45;4290538;81;21162;-85
2021/01/12 09:29:38;;;;;;;134.80;64.60;;;;;;;2.40;78.66;98404.58;4283464;81;21910;-84
2021/01/12 09:35:40;;;;;;;101.92;43.87;;;;;;;2.99;77.18;98401.11;4284523;81;21317;-85
2021/01/12 09:41:42;;;;;;;97.10;42.55;;;;;;;3.23;75.50;98395.47;4283306;81;21623;-85
2021/01/12 09:47:45;;;;;;;110.88;50.90;;;;;;;3.90;76.99;98386.00;4289676;81;21442;-85
2021/01/12 09:53:49;;;;;;;123.75;57.23;;;;;;;4.53;76.12;98383.02;4279905;81;21649;-86
2021/01/12 09:59:51;;;;;;;131.67;60.73;;;;;;;5.10;75.34;98372.95;4216531;82;21677;-85
2021/01/12 10:05:52;;;;;;;132.55;64.00;;;;;;;5.55;74.69;98363.65;4200158;84;21223;-86
2021/01/12 10:11:54;;;;;;;134.90;66.95;;;;;;;6.02;73.75;98347.93;4227819;83;38546;-87
2021/01/12 10:17:56;;;;;;;136.92;65.97;;;;;;;6.29;72.99;98336.56;4134334;85;21763;-85
2021/01/12 10:23:58;;;;;;;128.65;62.67;;;;;;;5.73;72.56;98329.48;4135604;84;21658;-85
2021/01/12 10:29:59;;;;;;;116.37;56.63;;;;;;;5.06;70.08;98318.41;4134079;85;21199;-86
2021/01/12 10:36:01;;;;;;;119.65;56.90;;;;;;;4.48;71.30;98304.68;4138252;84;21671;-86
2021/01/12 10:42:06;;;;;;;106.07;52.55;;;;;;;4.11;70.81;98299.88;4144494;85;21715;-85
2021/01/12 10:48:07;;;;;;;123.72;56.92;;;;;;;3.72;71.18;98279.94;4125572;84;21528;-86
2021/01/12 10:54:09;;;;;;;122.13;56.70;;;;;;;3.51;70.38;98273.94;4143456;83;21184;-85
2021/01/12 11:00:11;;;;;;;83.55;37.38;;;;;;;3.45;70.61;98258.30;4206420;83;21187;-86
2021/01/12 11:06:15;;;;;;;28.02;11.80;;;;;;;3.42;70.19;98244.91;4209226;83;21194;-85
2021/01/12 11:12:23;;;;;;;26.17;11.18;;;;;;;3.38;68.76;98231.07;4204970;83;21660;-85
2021/01/12 11:18:26;;;;;;;24.25;9.73;;;;;;;3.41;68.85;98219.55;4196151;83;21343;-85
2021/01/12 11:24:29;;;;;;;19.65;8.95;;;;;;;3.24;66.26;98213.31;4211997;83;21214;-86
2021/01/12 11:30:30;;;;;;;21.25;9.80;;;;;;;3.07;63.50;98204.71;4211670;83;21140;-85
2021/01/12 11:36:39;;;;;;;19.70;8.30;;;;;;;2.89;66.11;98197.48;4216082;83;21358;-85
2021/01/12 11:42:43;;;;;;;19.57;8.18;;;;;;;2.75;66.14;98172.76;4217793;83;21743;-85
2021/01/12 11:48:45;;;;;;;17.20;8.25;;;;;;;2.90;66.52;98168.52;4215262;82;21628;-85
2021/01/12 11:54:46;;;;;;;46.55;14.70;;;;;;;3.11;66.80;98160.44;4215524;83;21633;-86
2021/01/12 12:00:48;;;;;;;15.38;6.55;;;;;;;3.31;65.04;98151.06;4181635;84;21629;-86
2021/01/12 12:07:02;;;;;;;13.08;5.95;;;;;;;3.31;61.66;98143.75;4169522;84;22205;-85
2021/01/12 12:13:04;;;;;;;15.90;5.95;;;;;;;3.21;59.99;98130.75;4176296;84;21177;-86
2021/01/12 12:19:07;;;;;;;11.95;6.28;;;;;;;3.16;59.39;98122.89;4151739;84;21166;-85
2021/01/12 12:25:10;;;;;;;19.32;6.40;;;;;;;3.04;60.06;98111.56;4135268;84;34447;-85
2021/01/12 12:31:13;;;;;;;18.55;8.13;;;;;;;3.02;59.88;98109.00;4045749;86;21820;-86
2021/01/12 12:37:15;;;;;;;15.15;7.25;;;;;;;3.01;63.08;98093.89;4051745;87;21344;-86
2021/01/12 12:43:16;;;;;;;14.03;6.92;;;;;;;3.03;59.92;98082.97;4043292;87;21198;-85
2021/01/12 12:49:18;;;;;;;18.67;7.65;;;;;;;2.99;61.16;98075.31;4042663;87;21233;-85
2021/01/12 12:55:20;;;;;;;19.87;6.28;;;;;;;2.96;63.12;98081.41;4025119;87;21671;-85
2021/01/12 13:01:22;;;;;;;13.75;5.85;;;;;;;2.95;61.93;98064.19;3912729;89;21214;-85
2021/01/12 13:07:24;;;;;;;15.45;6.25;;;;;;;2.93;62.65;98059.69;4052915;87;21212;-85
2021/01/12 13:13:26;;;;;;;16.20;7.50;;;;;;;2.87;62.81;98055.12;4060855;86;21197;-85
2021/01/12 13:19:33;;;;;;;21.12;7.90;;;;;;;2.82;63.06;98041.05;4067876;86;21186;-85
2021/01/12 13:25:35;;;;;;;22.27;8.93;;;;;;;2.79;61.77;98034.99;4078741;86;21222;-86
2021/01/12 13:31:37;;;;;;;23.00;9.85;;;;;;;2.73;61.74;98039.09;4069868;86;21749;-86
2021/01/12 13:37:39;;;;;;;22.48;9.33;;;;;;;2.69;60.71;98023.36;4059996;86;21120;-85
2021/01/12 13:43:41;;;;;;;22.42;9.63;;;;;;;2.63;61.52;98016.64;4067644;86;22244;-85
2021/01/12 13:49:43;;;;;;;28.73;12.03;;;;;;;2.60;61.27;98006.53;4069217;86;21245;-85
2021/01/12 13:55:45;;;;;;;33.80;14.78;;;;;;;2.53;61.81;98003.07;4073416;86;21238;-85
2021/01/12 14:01:47;;;;;;;23.75;11.68;;;;;;;2.50;62.04;98000.27;4073302;86;21601;-85
2021/01/12 14:07:50;;;;;;;25.20;10.58;;;;;;;2.37;62.11;97987.95;4062848;86;21391;-86
2021/01/12 14:13:52;;;;;;;19.48;8.83;;;;;;;2.29;61.86;97983.48;4077692;85;21675;-86
2021/01/12 14:19:57;;;;;;;16.32;8.48;;;;;;;2.21;61.70;97971.70;4077399;86;21178;-85
2021/01/12 14:25:58;;;;;;;22.40;9.05;;;;;;;2.17;62.05;97959.25;4081534;86;21167;-85
2021/01/12 14:32:00;;;;;;;22.67;9.50;;;;;;;2.13;61.20;97957.03;4080161;86;21219;-85
2021/01/12 14:38:03;;;;;;;21.70;8.78;;;;;;;2.05;62.34;97950.63;4080290;86;21230;-85
2021/01/12 14:44:05;;;;;;;18.98;8.68;;;;;;;2.01;62.65;97942.22;4085778;85;21219;-85
2021/01/12 14:50:09;;;;;;;23.45;10.48;;;;;;;2.01;62.17;97936.81;4072784;86;21212;-85
2021/01/12 14:56:10;;;;;;;26.93;11.63;;;;;;;1.97;62.43;97933.25;4074691;86;21242;-85
2021/01/12 15:02:12;;;;;;;30.00;11.63;;;;;;;1.94;62.32;97917.19;4074441;86;21187;-85
2021/01/12 15:08:13;;;;;;;28.98;11.40;;;;;;;1.95;62.22;97921.45;4089720;86;21395;-85
2021/01/12 15:14:15;;;;;;;29.18;12.53;;;;;;;1.86;62.39;97918.12;4086858;86;21223;-86
2021/01/12 15:20:17;;;;;;;31.25;12.47;;;;;;;1.79;62.59;97916.55;4082889;86;21199;-86
2021/01/12 15:26:19;;;;;;;28.00;12.65;;;;;;;1.77;62.65;97908.59;4011952;88;21216;-86
2021/01/12 15:32:20;;;;;;;31.40;13.93;;;;;;;1.69;62.77;97902.22;4055277;87;21187;-86
2021/01/12 15:38:22;;;;;;;28.62;12.47;;;;;;;1.69;63.05;97901.43;4069874;87;21175;-86
2021/01/12 15:44:27;;;;;;;19.37;8.55;;;;;;;1.64;63.55;97899.18;4059533;87;21618;-86
2021/01/12 15:50:29;;;;;;;17.05;8.00;;;;;;;1.67;64.05;97897.73;4060517;87;21196;-86
2021/01/12 15:56:31;;;;;;;17.73;8.78;;;;;;;1.70;64.66;97896.25;4065031;85;21215;-86
2021/01/12 16:02:43;;;;;;;20.75;9.78;;;;;;;1.77;64.86;97889.71;4057039;87;21266;-85
2021/01/12 16:08:46;;;;;;;19.95;8.98;;;;;;;1.83;64.68;97884.28;4060463;87;21582;-85
2021/01/12 16:14:48;;;;;;;17.98;8.38;;;;;;;1.82;65.10;97882.72;4034848;87;21265;-86
2021/01/12 16:20:51;;;;;;;25.15;9.85;;;;;;;1.86;64.97;97873.59;4086114;85;21207;-86
2021/01/12 16:26:54;;;;;;;23.85;10.68;;;;;;;1.85;65.17;97873.94;4047813;87;21380;-85
2021/01/12 16:32:58;;;;;;;24.80;10.70;;;;;;;1.79;65.67;97885.53;4053323;87;21325;-85
2021/01/12 16:39:01;;;;;;;19.73;8.50;;;;;;;1.72;65.98;97889.39;4062244;87;21728;-85
2021/01/12 16:45:08;;;;;;;17.37;8.63;;;;;;;1.73;65.89;97886.11;4055778;85;21206;-85
2021/01/12 16:51:34;;;;;;;23.62;9.58;;;;;;;1.73;66.00;97886.11;4051322;87;22106;-85
2021/01/12 16:57:45;;;;;;;24.30;10.45;;;;;;;1.75;66.12;97877.91;4062301;87;21203;-85
2021/01/12 17:04:00;;;;;;;27.40;10.30;;;;;;;1.73;66.20;97877.47;4447087;78;23402;-86
2021/01/12 17:10:06;;;;;;;21.25;10.08;;;;;;;1.50;66.33;97849.47;4488261;78;21158;-85
2021/01/12 17:16:10;;;;;;;20.62;9.55;;;;;;;1.60;66.42;97863.80;4447951;78;21181;-85
2021/01/12 17:28:35;;;;;;;20.55;9.80;;;;;;;1.53;67.48;97865.73;4391577;79;23005;-86
2021/01/12 17:34:38;;;;;;;24.70;10.25;;;;;;;1.45;67.39;97860.49;4329830;80;21189;-85
2021/01/12 17:40:42;;;;;;;24.52;10.88;;;;;;;1.38;68.28;97852.19;4342044;80;21133;-85
2021/01/12 17:54:25;;;;;;;23.83;10.58;;;;;;;1.19;68.02;97847.42;4353698;78;21149;-85
2021/01/12 18:00:29;;;;;;;26.48;12.25;;;;;;;1.14;68.49;97842.26;4487636;78;21815;-85
2021/01/12 18:06:39;;;;;;;27.45;11.75;;;;;;;1.04;68.73;97838.70;4479524;77;21287;-85
2021/01/12 18:12:45;;;;;;;24.85;10.43;;;;;;;1.01;69.08;97841.29;4489185;77;21651;-84
2021/01/12 18:18:48;;;;;;;27.05;11.38;;;;;;;0.97;69.12;97841.17;4483049;78;21184;-85
2021/01/12 18:24:53;;;;;;;26.80;12.58;;;;;;;0.92;69.44;97844.68;4488368;78;21200;-85
2021/01/12 18:30:57;;;;;;;21.87;10.58;;;;;;;0.91;69.50;97836.39;4482539;78;22417;-85
2021/01/12 18:37:01;;;;;;;23.62;10.38;;;;;;;0.89;69.70;97827.84;4477568;78;21610;-85
2021/01/12 18:43:05;;;;;;;21.85;10.82;;;;;;;0.89;69.70;97827.84;4488545;77;21338;-85
2021/01/12 18:49:09;;;;;;;24.52;11.73;;;;;;;0.87;69.69;97824.70;4488372;78;21183;-85
2021/01/12 18:55:11;;;;;;;24.63;10.90;;;;;;;0.86;69.85;97815.06;4488595;78;21283;-85
2021/01/12 19:01:14;;;;;;;23.67;9.33;;;;;;;0.87;70.13;97823.35;4451385;78;21172;-85
2021/01/12 19:07:19;;;;;;;20.65;9.53;;;;;;;0.87;70.19;97819.31;4376860;80;21183;-85
2021/01/12 19:13:21;;;;;;;25.95;10.78;;;;;;;0.86;70.11;97817.75;4347325;80;21327;-85
2021/01/12 19:19:23;;;;;;;23.38;10.40;;;;;;;0.83;70.39;97807.08;4273494;81;21165;-85
2021/01/12 19:25:26;;;;;;;25.70;11.53;;;;;;;0.80;70.52;97807.76;4324177;80;21154;-83
2021/01/12 19:31:33;;;;;;;20.23;10.30;;;;;;;0.85;70.22;97812.13;4349325;80;21175;-85
2021/01/12 19:37:42;;;;;;;22.77;9.15;;;;;;;0.85;70.22;97812.13;4349872;80;21617;-84
2021/01/12 19:43:46;;;;;;;18.02;8.63;;;;;;;0.87;70.46;97811.23;4359203;80;21222;-84
2021/01/12 19:49:48;;;;;;;22.50;9.60;;;;;;;0.73;70.74;97798.69;4388754;80;21686;-85
2021/01/12 19:55:51;;;;;;;25.40;9.90;;;;;;;0.73;70.74;97798.69;4380231;80;21177;-85
2021/01/12 20:02:10;;;;;;;;;;;;;;;;;;;;;
2021/01/12 20:08:23;;;;;;;20.25;9.20;;;;;;;0.88;70.72;97810.09;4528866;77;22575;-85
2021/01/12 20:14:26;;;;;;;23.92;11.10;;;;;;;0.82;70.76;97809.56;4471777;78;22328;-86
2021/01/12 20:20:29;;;;;;;25.00;9.88;;;;;;;0.69;70.90;97793.19;4481164;78;21692;-85
2021/01/12 20:26:36;;;;;;;24.67;10.00;;;;;;;0.67;70.72;97800.05;4467601;78;21209;-85
2021/01/12 20:32:44;;;;;;;22.87;10.60;;;;;;;0.67;70.72;97800.05;4468632;78;21229;-85
2021/01/12 20:38:46;;;;;;;27.45;12.07;;;;;;;0.78;71.13;97825.40;4481910;78;21184;-85
2021/01/12 20:44:49;;;;;;;23.42;9.88;;;;;;;0.78;71.13;97825.40;4481408;78;21298;-85
2021/01/12 20:50:52;;;;;;;21.75;8.58;;;;;;;0.78;71.38;97824.84;4476728;78;21172;-84
2021/01/12 20:56:54;;;;;;;17.50;9.05;;;;;;;0.69;71.84;97820.13;4477998;78;21177;-85
2021/01/12 21:02:56;;;;;;;21.07;10.13;;;;;;;0.60;72.39;97831.58;4475891;78;21279;-85
2021/01/12 21:08:58;;;;;;;25.80;11.38;;;;;;;0.50;72.87;97831.25;4482880;78;21737;-84
2021/01/12 21:15:01;;;;;;;22.87;10.93;;;;;;;0.50;72.87;97831.25;4477805;78;21418;-85
2021/01/12 21:21:05;;;;;;;22.27;10.63;;;;;;;0.25;73.82;97807.56;4482200;78;21191;-85
2021/01/12 21:27:08;;;;;;;23.60;10.43;;;;;;;0.14;75.04;97823.96;4463868;78;21162;-84
2021/01/12 21:33:10;;;;;;;24.63;11.38;;;;;;;0.14;75.04;97823.96;4470057;78;21171;-84
2021/01/12 21:39:11;;;;;;;24.70;12.37;;;;;;;0.00;75.40;97822.91;4480189;78;21140;-85
2021/01/12 21:45:16;;;;;;;26.05;12.85;;;;;;;0.00;75.40;97822.91;4482271;78;21159;-84
2021/01/12 21:51:20;;;;;;;32.78;15.83;;;;;;;-0.05;76.08;97827.73;4481089;78;22185;-85
2021/01/12 21:57:21;;;;;;;33.38;15.38;;;;;;;-0.08;76.45;97829.17;4479412;78;21141;-85
2021/01/12 22:03:35;;;;;;;35.67;16.80;;;;;;;-0.10;76.78;97827.40;4478232;78;21206;-84
2021/01/12 22:09:33;;;;;;;34.10;14.98;;;;;;;-0.09;76.89;97821.44;4482395;78;21663;-85
2021/01/12 22:15:41;;;;;;;32.28;15.08;;;;;;;-0.13;77.72;97821.34;4475880;78;21159;-85
2021/01/12 22:21:46;;;;;;;39.27;16.62;;;;;;;-0.19;77.71;97818.62;4478785;78;22522;-84
2021/01/12 22:27:48;;;;;;;36.33;16.20;;;;;;;-0.17;77.76;97815.04;4479823;78;21131;-85
2021/01/12 22:33:50;;;;;;;43.73;17.37;;;;;;;-0.14;77.77;97808.20;4479472;78;21556;-85
2021/01/12 22:39:52;;;;;;;49.93;22.23;;;;;;;-0.14;78.20;97806.85;4392324;79;21166;-85
2021/01/12 22:45:54;;;;;;;75.25;28.55;;;;;;;-0.13;78.16;97803.86;4366984;80;21193;-85
2021/01/12 22:51:56;;;;;;;65.10;24.37;;;;;;;-0.15;78.08;97803.40;4321722;81;21316;-85
2021/01/12 22:58:01;;;;;;;49.50;21.33;;;;;;;-0.19;78.62;97809.20;4397231;80;21304;-85
2021/01/12 23:04:03;;;;;;;63.33;24.30;;;;;;;-0.21;78.38;97800.70;4392809;80;21633;-85
2021/01/12 23:10:07;;;;;;;43.17;19.35;;;;;;;-0.23;79.05;97802.93;4394020;79;21161;-85
2021/01/12 23:16:08;;;;;;;48.58;19.48;;;;;;;-0.23;79.05;97802.93;4400613;79;21164;-84
2021/01/12 23:22:10;;;;;;;51.98;20.75;;;;;;;-0.22;79.14;97808.52;4389438;79;21177;-85
2021/01/12 23:28:11;;;;;;;51.45;20.57;;;;;;;-0.18;79.47;97806.76;4395826;80;21582;-84
2021/01/12 23:34:13;;;;;;;39.30;17.82;;;;;;;-0.18;79.72;97805.41;4395094;79;21189;-85
2021/01/12 23:40:15;;;;;;;33.00;15.53;;;;;;;-0.19;79.92;97804.40;4391391;80;21149;-85
2021/01/12 23:46:17;;;;;;;26.00;12.68;;;;;;;-0.30;80.47;97788.47;4394980;80;21169;-85
2021/01/12 23:52:20;;;;;;;30.00;13.15;;;;;;;-0.18;80.36;97810.79;4399827;80;21273;-84
2021/01/12 23:58:21;;;;;;;35.28;14.70;;;;;;;-0.23;80.97;97808.86;4392066;79;21301;-85
